createdAt,value
2023-03-31T00:03:38.925Z,12.10
2023-03-31T00:07:42.153Z,12.10
2023-03-31T00:11:45.107Z,12.00
2023-03-31T00:15:49.438Z,12.00
2023-03-31T00:19:52.443Z,11.90
2023-03-31T00:23:57.071Z,11.90
2023-03-31T00:28:00.050Z,11.80
2023-03-31T00:32:04.471Z,11.80
2023-03-31T00:36:08.287Z,11.70
2023-03-31T00:40:12.603Z,11.70
2023-03-31T00:44:18.940Z,11.60
2023-03-31T00:48:25.254Z,11.60
2023-03-31T00:52:35.657Z,11.60
2023-03-31T00:56:42.330Z,11.50
2023-03-31T01:00:45.488Z,11.50
2023-03-31T01:04:54.871Z,11.50
2023-03-31T01:08:58.654Z,11.50
2023-03-31T01:13:01.799Z,11.50
2023-03-31T01:17:05.627Z,11.40
2023-03-31T01:21:47.598Z,11.40
2023-03-31T01:26:11.855Z,11.40
2023-03-31T01:30:41.716Z,11.40
2023-03-31T01:35:28.341Z,11.30
2023-03-31T01:40:09.902Z,11.30
2023-03-31T01:44:22.229Z,11.30
2023-03-31T01:48:39.274Z,11.30
2023-03-31T01:52:48.074Z,11.30
2023-03-31T01:56:56.433Z,11.30
2023-03-31T02:01:03.667Z,11.30
2023-03-31T02:05:11.861Z,11.30
2023-03-31T02:09:19.188Z,11.30
2023-03-31T02:13:26.701Z,11.30
2023-03-31T02:17:32.690Z,11.30
2023-03-31T02:21:39.938Z,11.30
2023-03-31T02:25:47.864Z,11.30
2023-03-31T02:29:52.850Z,11.30
2023-03-31T02:33:56.470Z,11.30
2023-03-31T02:37:59.910Z,11.20
2023-03-31T02:42:07.161Z,11.20
2023-03-31T02:46:11.967Z,11.20
2023-03-31T02:50:15.037Z,11.20
2023-03-31T02:54:47.989Z,11.20
2023-03-31T02:59:08.583Z,11.20
2023-03-31T03:03:30.115Z,11.10
2023-03-31T03:07:38.675Z,11.10
2023-03-31T03:11:49.107Z,11.10
2023-03-31T03:15:57.015Z,11.10
2023-03-31T03:20:07.779Z,11.00
2023-03-31T03:24:10.927Z,11.00
2023-03-31T03:28:13.877Z,11.00
2023-03-31T03:32:16.921Z,11.00
2023-03-31T03:36:23.090Z,11.00
2023-03-31T03:40:28.223Z,11.00
2023-03-31T03:44:31.181Z,11.00
2023-03-31T03:48:34.157Z,11.00
2023-03-31T03:52:39.234Z,11.00
2023-03-31T03:56:42.324Z,11.00
2023-03-31T04:00:46.228Z,10.90
2023-03-31T04:04:49.210Z,11.00
2023-03-31T04:08:53.510Z,11.00
2023-03-31T04:12:56.461Z,11.00
2023-03-31T04:16:59.455Z,11.00
2023-03-31T04:21:05.043Z,11.00
2023-03-31T04:25:16.353Z,11.10
2023-03-31T04:29:20.695Z,11.10
2023-03-31T04:33:23.766Z,11.10
2023-03-31T04:37:28.302Z,11.10
2023-03-31T04:41:32.677Z,11.20
2023-03-31T04:45:36.705Z,11.20
2023-03-31T04:49:39.703Z,11.20
2023-03-31T04:53:48.994Z,11.10
2023-03-31T04:57:53.397Z,11.10
2023-03-31T05:02:00.723Z,11.10
2023-03-31T05:06:04.450Z,11.10
2023-03-31T05:10:09.247Z,11.10
2023-03-31T05:14:13.652Z,11.00
2023-03-31T05:18:16.671Z,11.00
2023-03-31T05:22:21.442Z,11.00
2023-03-31T05:26:25.428Z,11.10
2023-03-31T05:30:30.362Z,11.10
2023-03-31T05:34:33.571Z,11.10
2023-03-31T05:38:36.609Z,11.00
2023-03-31T05:42:40.000Z,11.00
2023-03-31T05:46:44.474Z,11.00
2023-03-31T05:50:47.582Z,11.00
2023-03-31T05:54:51.029Z,11.00
2023-03-31T05:58:54.039Z,11.00
2023-03-31T06:02:59.497Z,11.00
2023-03-31T06:07:02.641Z,11.00
2023-03-31T06:11:07.590Z,11.00
2023-03-31T06:15:11.451Z,11.00
2023-03-31T06:19:16.105Z,11.00
2023-03-31T06:23:19.385Z,11.00
2023-03-31T06:27:22.337Z,10.90
2023-03-31T06:31:26.561Z,10.90
2023-03-31T06:35:31.081Z,10.90
2023-03-31T06:39:34.087Z,10.90
2023-03-31T06:43:37.144Z,10.90
2023-03-31T06:47:41.588Z,10.90
2023-03-31T06:51:45.997Z,10.90
2023-03-31T06:55:49.377Z,10.90
2023-03-31T06:59:52.620Z,10.90
2023-03-31T07:03:55.985Z,10.90
2023-03-31T07:08:01.543Z,10.90
2023-03-31T07:12:05.470Z,11.00
2023-03-31T07:16:11.120Z,11.00
2023-03-31T07:20:16.331Z,11.00
2023-03-31T07:24:21.168Z,11.00
2023-03-31T07:28:24.421Z,11.00
2023-03-31T07:32:29.182Z,11.00
2023-03-31T07:36:33.059Z,11.00
2023-03-31T07:40:37.445Z,11.00
2023-03-31T07:44:40.507Z,11.00
2023-03-31T07:48:44.013Z,11.00
2023-03-31T07:52:47.509Z,11.00
2023-03-31T07:56:53.127Z,11.10
2023-03-31T08:00:56.325Z,11.10
2023-03-31T08:04:59.314Z,11.20
2023-03-31T08:09:02.297Z,11.20
2023-03-31T08:13:08.662Z,11.30
2023-03-31T08:17:12.256Z,11.30
2023-03-31T08:21:15.359Z,11.40
2023-03-31T08:25:18.532Z,11.40
2023-03-31T08:29:27.771Z,11.40
2023-03-31T08:33:30.854Z,11.50
2023-03-31T08:37:33.974Z,11.50
2023-03-31T08:41:47.454Z,11.50
2023-03-31T08:45:54.166Z,11.50
2023-03-31T08:50:03.843Z,11.50
2023-03-31T08:54:17.299Z,11.50
2023-03-31T08:58:33.322Z,11.50
2023-03-31T09:02:48.783Z,11.50
2023-03-31T09:06:59.997Z,11.50
2023-03-31T09:11:31.476Z,11.60
2023-03-31T09:15:41.079Z,11.60
2023-03-31T09:19:50.181Z,11.60
2023-03-31T09:23:59.987Z,11.60
2023-03-31T09:28:06.477Z,11.60
2023-03-31T09:32:16.880Z,11.60
2023-03-31T09:36:24.497Z,11.60
2023-03-31T09:40:29.722Z,11.60
2023-03-31T09:44:37.561Z,11.60
2023-03-31T09:48:43.436Z,11.50
2023-03-31T09:52:51.406Z,11.60
2023-03-31T09:56:54.296Z,11.50
2023-03-31T10:00:58.693Z,11.50
2023-03-31T10:05:02.952Z,11.50
2023-03-31T10:09:07.242Z,11.50
2023-03-31T10:13:11.414Z,11.60
2023-03-31T10:17:15.604Z,11.60
2023-03-31T10:21:21.650Z,11.60
2023-03-31T10:25:28.957Z,11.60
2023-03-31T10:29:32.464Z,11.60
2023-03-31T10:33:41.862Z,11.60
2023-03-31T10:37:44.804Z,11.70
2023-03-31T10:41:52.825Z,11.70
2023-03-31T10:45:57.436Z,11.60
2023-03-31T10:50:00.441Z,11.70
2023-03-31T10:54:04.272Z,11.70
2023-03-31T10:58:17.459Z,11.70
2023-03-31T11:02:39.060Z,11.80
2023-03-31T11:06:50.498Z,11.90
2023-03-31T11:10:58.840Z,11.90
2023-03-31T11:15:09.665Z,12.00
2023-03-31T11:19:17.441Z,12.10
2023-03-31T11:23:24.584Z,12.10
2023-03-31T11:27:32.943Z,12.20
2023-03-31T11:31:41.382Z,12.20
2023-03-31T11:35:54.608Z,12.20
2023-03-31T11:40:00.982Z,12.20
2023-03-31T11:44:06.356Z,12.20
2023-03-31T11:48:14.543Z,12.30
2023-03-31T11:52:18.974Z,12.30
2023-03-31T11:56:23.608Z,12.30
2023-03-31T12:00:30.043Z,12.30
2023-03-31T12:04:36.577Z,12.40
2023-03-31T12:08:41.349Z,12.50
2023-03-31T12:12:45.882Z,12.60
2023-03-31T12:16:50.362Z,12.80
2023-03-31T12:20:56.418Z,12.90
2023-03-31T12:24:59.437Z,13.10
2023-03-31T12:29:05.037Z,13.20
2023-03-31T12:33:10.329Z,13.30
2023-03-31T12:37:25.539Z,13.30
2023-03-31T12:41:31.910Z,13.20
2023-03-31T12:45:39.404Z,13.20
2023-03-31T12:49:51.631Z,13.10
2023-03-31T12:54:01.244Z,13.00
2023-03-31T12:58:22.483Z,12.90
2023-03-31T13:02:26.558Z,12.90
2023-03-31T13:06:49.070Z,12.80
2023-03-31T13:10:57.475Z,12.80
2023-03-31T13:15:00.712Z,12.70
2023-03-31T13:19:03.553Z,12.80
2023-03-31T13:23:08.692Z,12.90
2023-03-31T13:27:26.338Z,13.00
2023-03-31T13:31:50.540Z,13.10
2023-03-31T13:35:55.990Z,13.30
2023-03-31T13:40:14.189Z,13.50
2023-03-31T13:44:32.778Z,13.60
2023-03-31T13:48:43.996Z,13.80
2023-03-31T13:52:53.123Z,14.00
2023-03-31T13:57:10.834Z,14.10
2023-03-31T14:01:34.008Z,14.20
2023-03-31T14:05:40.067Z,14.30
2023-03-31T14:09:49.588Z,14.30
2023-03-31T14:14:03.482Z,14.20
2023-03-31T14:18:07.905Z,14.20
2023-03-31T14:22:17.715Z,14.10
2023-03-31T14:26:27.078Z,14.00
2023-03-31T14:30:35.138Z,13.90
2023-03-31T14:34:47.013Z,13.80
2023-03-31T14:38:51.476Z,13.70
2023-03-31T14:42:54.270Z,13.60
2023-03-31T14:46:57.702Z,13.40
2023-03-31T14:51:02.106Z,13.30
2023-03-31T14:55:07.001Z,13.20
2023-03-31T14:59:10.225Z,13.10
2023-03-31T15:03:15.135Z,13.00
2023-03-31T15:07:18.496Z,13.00
2023-03-31T15:11:22.704Z,12.90
2023-03-31T15:15:25.682Z,12.90
2023-03-31T15:19:29.912Z,12.80
2023-03-31T15:23:32.721Z,12.80
2023-03-31T15:27:38.077Z,12.80
2023-03-31T15:31:42.086Z,12.80
2023-03-31T15:35:45.079Z,12.80
2023-03-31T15:39:48.943Z,12.80
2023-03-31T15:44:03.963Z,12.80
2023-03-31T15:48:07.004Z,12.90
2023-03-31T15:52:21.103Z,12.90
2023-03-31T15:56:32.367Z,12.90
2023-03-31T16:00:45.648Z,12.90
2023-03-31T16:04:49.900Z,12.90
2023-03-31T16:08:58.579Z,12.90
2023-03-31T16:13:03.939Z,13.00
2023-03-31T16:17:09.696Z,13.00
2023-03-31T16:21:14.200Z,12.90
2023-03-31T16:25:18.254Z,12.90
2023-03-31T16:29:22.109Z,12.90
2023-03-31T16:33:26.480Z,12.90
2023-03-31T16:37:29.292Z,12.80
2023-03-31T16:41:32.692Z,12.80
2023-03-31T16:45:35.523Z,12.70
2023-03-31T16:49:39.693Z,12.70
2023-03-31T16:53:42.518Z,12.60
2023-03-31T16:57:45.320Z,12.60
2023-03-31T17:01:48.194Z,12.50
2023-03-31T17:05:55.655Z,12.50
2023-03-31T17:09:59.913Z,12.40
2023-03-31T17:14:04.173Z,12.40
2023-03-31T17:18:07.374Z,12.40
2023-03-31T17:22:12.066Z,12.30
2023-03-31T17:26:15.451Z,12.30
2023-03-31T17:30:18.320Z,12.20
2023-03-31T17:34:21.414Z,12.20
2023-03-31T17:38:25.551Z,12.20
2023-03-31T17:42:28.357Z,12.10
2023-03-31T17:46:31.665Z,12.10
2023-03-31T17:50:34.520Z,12.10
2023-03-31T17:54:38.669Z,12.00
2023-03-31T17:58:41.513Z,12.00
2023-03-31T18:02:44.480Z,11.90
2023-03-31T18:06:48.595Z,11.90
2023-03-31T18:10:52.739Z,11.90
2023-03-31T18:14:55.636Z,11.90
2023-03-31T18:18:58.820Z,11.80
2023-03-31T18:23:01.616Z,11.80
2023-03-31T18:27:06.437Z,11.70
2023-03-31T18:31:09.509Z,11.70
2023-03-31T18:35:12.374Z,11.70
2023-03-31T18:39:15.164Z,11.70
2023-03-31T18:43:19.483Z,11.60
2023-03-31T18:47:22.323Z,11.60
2023-03-31T18:51:25.119Z,11.60
2023-03-31T18:55:29.224Z,11.60
2023-03-31T18:59:33.527Z,11.50
2023-03-31T19:03:36.488Z,11.50
2023-03-31T19:07:39.500Z,11.50
2023-03-31T19:11:42.636Z,11.50
2023-03-31T19:15:47.070Z,11.50
2023-03-31T19:19:50.238Z,11.50
2023-03-31T19:23:53.223Z,11.40
2023-03-31T19:27:56.192Z,11.40
2023-03-31T19:32:00.456Z,11.50
2023-03-31T19:36:03.301Z,11.50
2023-03-31T19:40:06.746Z,11.40
2023-03-31T19:44:09.574Z,11.50
2023-03-31T19:48:13.896Z,11.50
2023-03-31T19:52:16.882Z,11.50
2023-03-31T19:56:20.923Z,11.50
2023-03-31T20:00:23.861Z,11.50
2023-03-31T20:04:28.184Z,11.50
2023-03-31T20:08:31.376Z,11.50
2023-03-31T20:12:34.226Z,11.50
2023-03-31T20:16:37.101Z,11.50
2023-03-31T20:20:45.660Z,11.50
2023-03-31T20:24:48.451Z,11.50
2023-03-31T20:28:52.014Z,11.50
2023-03-31T20:32:54.879Z,11.50
2023-03-31T20:36:59.321Z,11.50
2023-03-31T20:41:02.126Z,11.50
2023-03-31T20:45:05.292Z,11.50
2023-03-31T20:49:08.096Z,11.50
2023-03-31T20:53:12.798Z,11.40
2023-03-31T20:57:15.647Z,11.40
2023-03-31T21:01:19.917Z,11.40
2023-03-31T21:05:22.775Z,11.40
2023-03-31T21:09:26.960Z,11.40
2023-03-31T21:13:30.640Z,11.30
2023-03-31T21:17:33.484Z,11.30
2023-03-31T21:21:36.511Z,11.30
2023-03-31T21:25:40.878Z,11.30
2023-03-31T21:29:43.673Z,11.30
2023-03-31T21:33:47.489Z,11.30
2023-03-31T21:37:50.308Z,11.30
2023-03-31T21:41:54.489Z,11.30
2023-03-31T21:45:59.168Z,11.30
2023-03-31T21:50:02.705Z,11.30
2023-03-31T21:54:06.808Z,11.30
2023-03-31T21:58:11.336Z,11.30
2023-03-31T22:02:14.127Z,11.30
2023-03-31T22:06:17.048Z,11.20
2023-03-31T22:10:19.895Z,11.20
2023-03-31T22:14:24.063Z,11.20
2023-03-31T22:18:26.923Z,11.20
2023-03-31T22:22:29.718Z,11.10
2023-03-31T22:26:32.529Z,11.10
2023-03-31T22:30:36.737Z,11.10
2023-03-31T22:34:39.550Z,11.10
2023-03-31T22:38:42.770Z,11.00
2023-03-31T22:42:45.566Z,11.00
2023-03-31T22:46:50.731Z,11.00
2023-03-31T22:50:53.650Z,11.00
2023-03-31T22:54:56.478Z,11.00
2023-03-31T22:58:59.732Z,10.90
2023-03-31T23:03:04.066Z,10.90
2023-03-31T23:07:07.322Z,10.90
2023-03-31T23:11:11.910Z,10.90
2023-03-31T23:15:14.885Z,10.90
2023-03-31T23:19:19.709Z,10.90
2023-03-31T23:23:22.641Z,10.90
2023-03-31T23:27:25.558Z,10.80
2023-03-31T23:31:29.375Z,10.80
2023-03-31T23:35:33.715Z,10.80
2023-03-31T23:39:38.858Z,10.80
2023-03-31T23:43:41.886Z,10.80
2023-03-31T23:47:44.714Z,10.80
2023-03-31T23:51:48.883Z,10.80
2023-03-31T23:55:55.554Z,10.80
2023-03-31T23:59:58.367Z,10.80
